Binfield, United Kingdom
Current Conditions -  °F | °C
As of 4:50 PM on Saturday 22 Nov 2014 (Local Time) from EGLF Reporting Station
Drizzle Drizzle  
Wind Chill: 57°   Ceiling: 500
Heat Index: 57°   Visibility: 3mi
Dew Point: 55°   Wind: 5mph
Humidity: 94%   Direction: 180°S
Pressure: 29.94"   Gusts: NA
Location:  51.42°N, 0.78°W
Report Text: EGLF 221650Z 18004KT 5000 -DZ BR BKN005 14/13 Q1014
Loading
Personal Weather Stations






























Interactive Weather Map New forecast layout! Learn more

10-Day Weather Forecast

Advertisements
Track Severe Weather on mobile